Time;durP1;ratioP1;P1;durP2;ratioP2;P2;SDS_P1;SDS_P2;PMS_P1;PMS_P2;Temp;Humidity;BMP_temperature;BMP_pressure;BME280_temperature;BME280_humidity;BME280_pressure;Samples;Min_cycle;Max_cycle;Signal;HPM_P1;HPM_P2
2022/08/27 00:05:44;;;;;;;51.83;34.47;;;;;;;19.61;100.00;100173.31;20742547;28;20490;-73
2022/08/27 00:15:46;;;;;;;54.17;37.95;;;;;;;19.61;100.00;100159.19;20742495;28;20050;-73
2022/08/27 00:25:47;;;;;;;55.75;37.28;;;;;;;19.57;100.00;100139.88;20741521;28;20046;-74
2022/08/27 00:35:49;;;;;;;56.15;37.65;;;;;;;19.52;100.00;100128.66;20748766;28;20056;-73
2022/08/27 00:45:51;;;;;;;54.90;37.72;;;;;;;19.57;100.00;100123.94;20740903;28;20065;-74
2022/08/27 00:55:52;;;;;;;59.50;39.00;;;;;;;19.61;100.00;100117.53;20740317;28;20108;-74
2022/08/27 01:05:53;;;;;;;62.28;42.13;;;;;;;19.46;100.00;100121.06;20806807;23;20442;-75
2022/08/27 01:15:57;;;;;;;52.63;36.78;;;;;;;19.34;100.00;100101.34;20820803;28;20064;-73
2022/08/27 01:25:59;;;;;;;52.60;36.10;;;;;;;19.23;100.00;100101.97;20820126;28;20088;-73
2022/08/27 01:36:00;;;;;;;56.25;36.33;;;;;;;19.15;100.00;100096.22;20819455;28;20061;-73
2022/08/27 01:46:02;;;;;;;57.53;38.60;;;;;;;19.14;100.00;100107.78;20819706;28;20058;-74
2022/08/27 01:56:03;;;;;;;57.78;38.88;;;;;;;19.00;100.00;100114.78;20819353;28;20057;-73
2022/08/27 02:06:05;;;;;;;59.38;38.72;;;;;;;18.92;100.00;100108.13;20817886;28;20056;-72
2022/08/27 02:16:06;;;;;;;61.30;39.40;;;;;;;18.96;100.00;100106.13;20822297;28;20071;-72
2022/08/27 02:26:07;;;;;;;64.28;41.60;;;;;;;19.03;100.00;100093.41;20834236;28;20045;-71
2022/08/27 02:36:09;;;;;;;57.58;38.85;;;;;;;19.09;100.00;100101.03;20833025;28;20390;-71
2022/08/27 02:46:10;;;;;;;49.80;35.88;;;;;;;19.06;100.00;100095.88;20831586;28;20092;-71
2022/08/27 02:56:12;;;;;;;48.72;33.05;;;;;;;19.22;100.00;100100.25;20832008;28;20065;-72
2022/08/27 03:06:17;;;;;;;44.42;33.10;;;;;;;19.29;100.00;100099.91;20830442;28;20100;-72
2022/08/27 03:16:18;;;;;;;44.70;32.13;;;;;;;19.34;100.00;100095.19;20830408;28;20050;-72
2022/08/27 03:26:20;;;;;;;47.78;32.85;;;;;;;19.27;100.00;100100.00;20829236;28;20099;-72
2022/08/27 03:36:21;;;;;;;44.13;31.52;;;;;;;19.35;100.00;100099.53;20828255;28;20060;-72
2022/08/27 03:46:26;;;;;;;44.85;32.00;;;;;;;19.34;100.00;100108.47;20828492;28;20103;-72
2022/08/27 03:56:28;;;;;;;44.60;32.72;;;;;;;19.46;100.00;100105.97;20826999;28;20095;-73
2022/08/27 04:06:29;;;;;;;49.70;33.20;;;;;;;19.43;100.00;100106.13;20826419;28;20076;-74
2022/08/27 04:16:30;;;;;;;42.00;30.80;;;;;;;19.45;100.00;100100.72;20825382;28;20061;-74
2022/08/27 04:26:32;;;;;;;41.28;29.63;;;;;;;19.38;100.00;100091.41;20825417;28;20057;-73
2022/08/27 04:36:33;;;;;;;44.97;31.30;;;;;;;19.30;100.00;100102.44;20823055;28;20049;-73
2022/08/27 04:46:35;;;;;;;42.10;28.90;;;;;;;19.23;100.00;100109.91;20824099;28;20052;-74
2022/08/27 04:56:36;;;;;;;39.00;29.75;;;;;;;19.44;100.00;100101.69;20823922;28;20414;-74
2022/08/27 05:06:38;;;;;;;39.92;28.45;;;;;;;19.50;100.00;100111.97;20822170;28;20478;-74
2022/08/27 05:16:39;;;;;;;38.55;28.75;;;;;;;19.31;100.00;100117.47;20821350;28;20292;-74
2022/08/27 05:26:41;;;;;;;38.65;28.55;;;;;;;19.39;100.00;100124.97;20814544;28;20140;-74
2022/08/27 05:36:42;;;;;;;43.13;29.00;;;;;;;19.35;100.00;100126.09;20743370;28;20077;-73
2022/08/27 05:46:49;;;;;;;35.97;27.77;;;;;;;19.35;100.00;100124.28;20739280;28;20386;-74
2022/08/27 05:56:50;;;;;;;36.75;26.65;;;;;;;19.51;100.00;100119.00;20737244;28;20046;-74
2022/08/27 06:06:51;;;;;;;36.47;26.98;;;;;;;19.53;100.00;100125.06;20736576;28;20331;-74
2022/08/27 06:16:53;;;;;;;32.72;25.15;;;;;;;19.63;100.00;100122.75;20736638;28;20061;-74
2022/08/27 06:26:55;;;;;;;31.25;24.35;;;;;;;19.83;100.00;100125.09;20736188;28;20494;-76
2022/08/27 06:36:56;;;;;;;30.40;24.65;;;;;;;19.88;100.00;100127.50;20735858;28;20050;-75
2022/08/27 06:46:57;;;;;;;27.20;22.90;;;;;;;19.99;100.00;100131.25;20734900;28;20482;-76
2022/08/27 06:56:59;;;;;;;31.35;24.23;;;;;;;20.20;100.00;100137.09;20827338;28;20045;-76
2022/08/27 07:07:01;;;;;;;27.90;22.05;;;;;;;20.33;100.00;100152.31;20889794;23;20054;-78
2022/08/27 07:17:02;;;;;;;32.58;24.20;;;;;;;20.23;100.00;100152.84;20873738;28;20081;-79
2022/08/27 07:27:07;;;;;;;31.23;23.70;;;;;;;20.27;100.00;100153.53;20880760;28;20132;-78
2022/08/27 07:37:08;;;;;;;32.10;24.90;;;;;;;20.20;100.00;100163.66;20880389;28;20141;-78
2022/08/27 07:47:09;;;;;;;33.75;24.23;;;;;;;19.99;100.00;100180.88;20906525;28;20068;-79
2022/08/27 07:57:11;;;;;;;33.85;26.98;;;;;;;20.04;100.00;100191.25;20876863;28;20053;-77
2022/08/27 08:07:12;;;;;;;38.13;28.50;;;;;;;19.45;100.00;100193.66;20929504;28;20110;-79
2022/08/27 08:17:14;;;;;;;47.90;34.55;;;;;;;19.08;100.00;100202.81;20927340;28;20097;-78
2022/08/27 08:27:15;;;;;;;61.22;39.08;;;;;;;18.82;100.00;100210.34;20921207;28;20053;-78
2022/08/27 08:37:16;;;;;;;52.45;33.58;;;;;;;18.16;100.00;100216.38;20897491;28;20045;-78
2022/08/27 08:47:18;;;;;;;54.45;37.35;;;;;;;18.18;100.00;100214.50;20897965;28;20052;-78
2022/08/27 08:57:20;;;;;;;66.50;39.92;;;;;;;18.30;100.00;100231.59;20836594;28;20053;-78
2022/08/27 09:07:21;;;;;;;60.95;37.53;;;;;;;18.31;100.00;100221.84;20897196;28;20041;-80
2022/08/27 09:17:23;;;;;;;60.63;37.63;;;;;;;18.32;100.00;100220.91;20897226;28;20383;-78
2022/08/27 09:27:25;;;;;;;63.95;40.67;;;;;;;18.53;100.00;100230.41;20818187;28;20042;-78
2022/08/27 09:37:27;;;;;;;58.75;36.55;;;;;;;18.38;100.00;100239.13;20838016;28;20407;-78
2022/08/27 09:47:35;;;;;;;57.47;36.00;;;;;;;18.40;100.00;100231.97;20869709;28;20409;-77
2022/08/27 09:57:36;;;;;;;61.25;38.40;;;;;;;18.41;100.00;100229.25;20904297;28;20073;-79
2022/08/27 10:07:37;;;;;;;70.70;41.22;;;;;;;18.61;100.00;100227.34;20885951;28;20055;-79
2022/08/27 10:17:39;;;;;;;56.58;36.42;;;;;;;18.58;100.00;100246.91;20902282;28;20044;-77
2022/08/27 10:27:40;;;;;;;54.38;36.50;;;;;;;18.63;100.00;100252.84;20902846;28;20059;-77
2022/08/27 10:37:42;;;;;;;56.88;37.45;;;;;;;18.66;100.00;100252.69;20907100;28;20049;-77
2022/08/27 10:47:43;;;;;;;53.42;35.22;;;;;;;18.71;100.00;100256.00;20899659;28;20049;-79
2022/08/27 10:57:45;;;;;;;56.45;36.25;;;;;;;18.79;100.00;100250.31;20899546;28;20051;-79
2022/08/27 11:08:00;;;;;;;54.92;35.15;;;;;;;18.82;100.00;100243.97;20900114;28;20041;-78
2022/08/27 11:18:02;;;;;;;50.08;33.75;;;;;;;18.75;100.00;100235.50;20907729;28;20079;-79
2022/08/27 11:28:04;;;;;;;49.65;32.50;;;;;;;18.85;100.00;100227.91;20913874;28;20140;-79
2022/08/27 11:38:05;;;;;;;45.97;32.10;;;;;;;18.84;100.00;100218.25;20937335;28;20091;-80
2022/08/27 11:48:07;;;;;;;48.10;32.50;;;;;;;18.94;100.00;100208.84;20922059;28;20067;-78
2022/08/27 11:58:08;;;;;;;47.40;31.95;;;;;;;19.02;100.00;100214.63;20922264;28;20275;-79
2022/08/27 12:08:10;;;;;;;47.72;32.53;;;;;;;19.27;100.00;100207.97;20912503;28;20108;-79
2022/08/27 12:18:11;;;;;;;46.65;32.05;;;;;;;19.45;100.00;100204.28;20931949;28;20517;-80
2022/08/27 12:28:13;;;;;;;42.17;29.20;;;;;;;19.66;100.00;100197.81;20955888;28;20549;-79
2022/08/27 12:38:14;;;;;;;46.17;31.92;;;;;;;19.79;100.00;100187.38;20957184;28;20044;-79
2022/08/27 12:48:17;;;;;;;47.88;33.00;;;;;;;19.95;100.00;100187.31;20919766;28;20048;-79
2022/08/27 12:58:19;;;;;;;47.10;31.55;;;;;;;20.25;100.00;100180.19;20919292;28;20047;-77
2022/08/27 13:08:20;;;;;;;48.90;31.75;;;;;;;20.63;100.00;100185.06;20914811;28;20045;-79
2022/08/27 13:18:21;;;;;;;39.28;27.17;;;;;;;21.08;100.00;100167.22;20912263;28;20049;-78
2022/08/27 13:28:23;;;;;;;36.20;23.75;;;;;;;21.64;100.00;100164.53;20907180;28;20045;-78
2022/08/27 13:38:24;;;;;;;28.20;23.30;;;;;;;21.83;100.00;100156.19;20905605;28;20051;-78
2022/08/27 13:48:26;;;;;;;35.28;22.42;;;;;;;22.03;100.00;100159.22;20888389;28;20051;-79
2022/08/27 13:58:27;;;;;;;28.25;20.52;;;;;;;22.39;100.00;100159.56;20904939;28;20049;-79
2022/08/27 14:08:29;;;;;;;28.23;20.27;;;;;;;22.24;100.00;100156.97;20903426;28;20102;-77
2022/08/27 14:18:31;;;;;;;30.63;21.00;;;;;;;22.26;100.00;100162.19;20901190;28;20056;-78
2022/08/27 14:28:53;;;;;;;24.30;18.52;;;;;;;22.73;100.00;100161.56;20919755;28;20072;-78
2022/08/27 14:38:55;;;;;;;24.33;17.45;;;;;;;23.06;100.00;100144.16;20900740;28;20060;-79
2022/08/27 14:48:56;;;;;;;25.00;17.60;;;;;;;23.10;100.00;100142.16;20904199;28;20037;-79
2022/08/27 14:58:57;;;;;;;23.83;18.55;;;;;;;23.30;100.00;100146.88;20919137;28;20573;-78
2022/08/27 15:08:59;;;;;;;17.33;13.73;;;;;;;23.78;100.00;100137.09;20898136;28;20045;-78
2022/08/27 15:19:01;;;;;;;20.85;15.27;;;;;;;23.57;100.00;100144.00;20897234;28;20076;-78
2022/08/27 15:29:03;;;;;;;19.83;15.07;;;;;;;23.67;100.00;100138.88;20895783;28;20486;-78
2022/08/27 15:39:07;;;;;;;;;;;;;;;23.60;100.00;100124.22;20913155;28;20520;-78
2022/08/27 15:49:08;;;;;;;26.08;15.30;;;;;;;23.59;100.00;100126.03;20913812;28;19925;-78
2022/08/27 15:59:09;;;;;;;25.98;15.90;;;;;;;23.48;100.00;100123.31;20911718;28;20456;-78
2022/08/27 16:09:11;;;;;;;19.88;13.77;;;;;;;23.79;100.00;100128.09;20860844;28;20570;-78
2022/08/27 16:19:12;;;;;;;17.10;13.25;;;;;;;23.89;100.00;100116.72;20831906;28;20052;-78
2022/08/27 16:29:17;;;;;;;15.35;12.80;;;;;;;23.90;100.00;100113.06;20827506;28;20045;-79
2022/08/27 16:39:18;;;;;;;15.57;12.45;;;;;;;23.89;100.00;100116.72;20825009;28;20554;-78
2022/08/27 16:59:40;;;;;;;21.45;15.25;;;;;;;23.11;100.00;100119.81;20824581;28;20041;-77
2022/08/27 17:09:41;;;;;;;17.30;13.57;;;;;;;22.88;100.00;100118.75;20825713;28;20518;-77
2022/08/27 17:19:42;;;;;;;22.77;15.18;;;;;;;22.66;100.00;100128.28;20906187;28;20045;-76
2022/08/27 17:29:44;;;;;;;18.75;15.07;;;;;;;22.43;100.00;100129.88;20904773;28;20057;-78
2022/08/27 17:39:45;;;;;;;21.50;15.50;;;;;;;22.30;100.00;100130.84;20812892;28;20494;-77
2022/08/27 17:49:46;;;;;;;25.35;18.00;;;;;;;21.96;100.00;100141.09;20739772;28;20042;-77
2022/08/27 17:59:48;;;;;;;22.70;16.98;;;;;;;21.64;100.00;100138.75;20798048;23;21490;-76
2022/08/27 18:09:49;;;;;;;22.35;18.33;;;;;;;21.56;100.00;100149.06;20896482;23;20045;-78
2022/08/27 18:19:50;;;;;;;22.85;17.85;;;;;;;21.19;100.00;100142.56;20874503;28;20050;-77
2022/08/27 18:29:52;;;;;;;23.63;19.80;;;;;;;21.05;100.00;100156.75;20802821;28;20056;-78
2022/08/27 18:39:56;;;;;;;25.73;20.30;;;;;;;20.90;100.00;100165.69;20818661;28;20666;-77
2022/08/27 18:49:58;;;;;;;26.00;20.58;;;;;;;20.83;100.00;100182.97;20819712;28;20064;-76
2022/08/27 18:59:59;;;;;;;26.50;21.25;;;;;;;20.77;100.00;100186.03;20824111;28;20055;-77
2022/08/27 19:10:01;;;;;;;22.90;19.75;;;;;;;20.75;100.00;100194.97;20832224;28;20383;-77
2022/08/27 19:20:02;;;;;;;26.80;19.75;;;;;;;20.56;100.00;100202.34;20832550;28;20080;-76
2022/08/27 19:30:03;;;;;;;23.85;16.75;;;;;;;20.75;100.00;100221.56;20831435;28;20045;-77
2022/08/27 19:40:05;;;;;;;19.23;15.25;;;;;;;20.57;100.00;100233.31;20830904;28;20049;-76
2022/08/27 19:50:06;;;;;;;20.30;14.25;;;;;;;20.56;100.00;100250.22;20812652;28;20053;-76
2022/08/27 20:00:08;;;;;;;13.77;11.35;;;;;;;20.56;100.00;100247.56;20828931;28;20064;-76
2022/08/27 20:10:09;;;;;;;15.85;10.63;;;;;;;20.54;100.00;100259.22;20827552;28;20387;-76
2022/08/27 20:20:11;;;;;;;13.13;10.02;;;;;;;20.47;100.00;100264.06;20827134;28;20393;-76
2022/08/27 20:30:12;;;;;;;17.42;10.40;;;;;;;20.31;100.00;100279.16;20823510;28;20494;-77
2022/08/27 20:40:13;;;;;;;14.13;9.60;;;;;;;20.25;100.00;100286.56;20825678;28;20051;-77
2022/08/27 20:50:15;;;;;;;14.27;9.82;;;;;;;20.09;100.00;100285.72;20826057;28;20482;-77
2022/08/27 21:00:20;;;;;;;11.85;9.30;;;;;;;20.05;100.00;100285.97;20807485;28;20053;-77
2022/08/27 21:10:21;;;;;;;11.45;9.25;;;;;;;19.98;100.00;100289.00;20810048;28;20088;-77
2022/08/27 21:20:22;;;;;;;13.10;9.23;;;;;;;19.88;100.00;100286.91;20823485;28;20054;-78
2022/08/27 21:30:25;;;;;;;13.65;9.27;;;;;;;19.78;100.00;100280.41;20805591;28;20041;-76
2022/08/27 21:40:27;;;;;;;13.70;9.10;;;;;;;19.65;100.00;100275.78;20822334;28;20045;-77
2022/08/27 21:50:28;;;;;;;14.38;8.93;;;;;;;19.60;100.00;100277.00;20823941;28;20103;-77
2022/08/27 22:00:34;;;;;;;14.23;8.68;;;;;;;19.42;100.00;100284.13;20824726;28;20456;-77
2022/08/27 22:10:36;;;;;;;12.48;8.73;;;;;;;19.42;100.00;100276.16;20806598;28;20047;-77
2022/08/27 22:20:37;;;;;;;13.30;9.43;;;;;;;19.16;100.00;100267.81;20826936;28;20058;-77
2022/08/27 22:30:38;;;;;;;11.93;8.80;;;;;;;19.05;100.00;100264.00;20806548;28;20405;-77
2022/08/27 22:40:40;;;;;;;12.40;8.65;;;;;;;18.97;100.00;100264.38;20839067;28;20045;-77
2022/08/27 22:50:42;;;;;;;13.25;8.40;;;;;;;18.90;100.00;100265.66;20849974;28;20045;-78
2022/08/27 23:00:44;;;;;;;16.38;8.77;;;;;;;18.81;100.00;100271.44;20873142;28;20110;-78
2022/08/27 23:10:54;;;;;;;11.88;8.90;;;;;;;18.80;100.00;100275.03;20854449;28;20049;-78
2022/08/27 23:20:55;;;;;;;13.32;8.48;;;;;;;18.62;100.00;100277.66;20856096;28;20041;-78
2022/08/27 23:30:57;;;;;;;15.98;8.52;;;;;;;18.47;100.00;100283.75;20875336;28;20076;-78
2022/08/27 23:40:58;;;;;;;13.38;8.43;;;;;;;18.37;100.00;100290.44;20859735;28;20071;-78
2022/08/27 23:51:00;;;;;;;14.13;8.35;;;;;;;18.30;100.00;100295.19;20843555;28;20049;-78
